Aeroporto :
LOGIN :

Iscrizione | Disclaimer

   EN    FR    IT 

 










Sommario :    VFR   VFR Marginale   IFR   IFR Intensivo   IFR Molto Intensivo
Visibilità : 
Base nubi : 
>= 8 km
>= 3000ft
5 / 8 km
1000 / 3000 ft
1500m / 5 km
500 / 1000 ft
800 / 1500m
200 / 500 ft
< 800m
< 200 ft
Simboli :   Temporali  Nebbia  Neve Forte  Precipitazioni Forti  Vento > 20 kt
SIGMETs :   Varie  Temporali  Ghiacco  Turbolenza  Onda orograficha  Ceneri Vulcaniche






- Altitudine del aeroporto : 187 ft


ETNW - Wunstorf AB

ULTIMO METAR :
  • 222220Z 14011KT 5000 BR OVC003 05/04 Q1006 YLO

METARs OBSOLETI :
  • 222150Z 14009KT 5000 BR OVC004 05/04 Q1006 YLO
  • 222120Z 13010KT 4700 BR OVC003 05/04 Q1007 YLO
  • 222020Z 12011KT 4700 BR OVC002 05/04 Q1007 AMB

TAF TAF ETNW
Valido dal 22 a 18 ore il 23 a 18 ore UTC


221720Z 2218/2318 13005KT 9999 NSW SCT070 BKN200
TEMPO 2218/2222 11008KT 4000 BR BKN007
BECMG 2222/2224 09010KT 3000 BR BKN005
PROB30 2300/2311 08008KT 0500 FG VV001
BECMG 2311/2313 09012G22KT 8000 NSW SCT015 BKN030 BY ETGL



MetMap, La meteo Aeronautica in un colpo d'occhio ! - Copyright ORBIFLY Dicembre 2007 - Disclaimer

ORBIFLY MET'MAP TEAM :

Programmazione e sviluppo : Alexandra Zaïnal
Concezione e sviluppo : Baudouin d'Aumeries
Co-Programmazione e sviluppo : Marc-Olivier Méhu
Supporto tecnico e logistico : Manuel Goepfert
Aiuto per la traduzione : Arnaldo La Scala

Contatto : metmap@orbifly.com




FONTI E CREDITI :

   NOAA